Time;durP1;ratioP1;P1;durP2;ratioP2;P2;SDS_P1;SDS_P2;PMS_P1;PMS_P2;Temp;Humidity;BMP_temperature;BMP_pressure;BME280_temperature;BME280_humidity;BME280_pressure;Samples;Min_cycle;Max_cycle;Signal;HPM_P1;HPM_P2
2023/03/11 00:01:55;;;;;;;28.90;18.80;;;;;;;7.58;84.34;97712.98;103704;279;38531;-72
2023/03/11 00:04:29;;;;;;;28.00;18.50;;;;;;;7.58;84.28;97715.73;103680;279;38700;-73
2023/03/11 00:07:04;;;;;;;28.80;18.60;;;;;;;7.55;84.22;97716.06;103712;279;38371;-73
2023/03/11 00:09:38;;;;;;;31.90;18.30;;;;;;;7.54;84.38;97712.34;103762;279;38250;-73
2023/03/11 00:12:13;;;;;;;27.30;17.40;;;;;;;7.54;84.36;97711.52;103689;279;39739;-71
2023/03/11 00:14:48;;;;;;;25.20;17.20;;;;;;;7.54;84.34;97709.42;103619;279;38495;-72
2023/03/11 00:17:22;;;;;;;28.00;18.50;;;;;;;7.53;84.39;97702.31;103724;279;38691;-71
2023/03/11 00:19:57;;;;;;;27.70;17.80;;;;;;;7.53;84.35;97701.47;103718;279;38279;-73
2023/03/11 00:22:31;;;;;;;30.90;18.10;;;;;;;7.53;84.26;97703.95;103746;279;39419;-73
2023/03/11 00:25:05;;;;;;;32.30;17.50;;;;;;;7.48;84.26;97697.14;103738;279;38351;-72
2023/03/11 00:27:39;;;;;;;27.00;16.40;;;;;;;7.49;84.42;97694.29;103739;279;38370;-73
2023/03/11 00:30:16;;;;;;;26.10;16.80;;;;;;;7.50;84.49;97690.75;103728;279;38451;-73
2023/03/11 00:32:50;;;;;;;30.00;17.70;;;;;;;7.51;84.55;97691.07;103747;279;38661;-73
2023/03/11 00:35:26;;;;;;;23.90;16.00;;;;;;;7.51;84.70;97692.23;103651;279;38473;-73
2023/03/11 00:38:02;;;;;;;27.50;15.70;;;;;;;7.53;84.59;97690.23;103692;279;39395;-71
2023/03/11 00:40:37;;;;;;;25.30;15.40;;;;;;;7.53;84.63;97688.44;103672;279;39415;-71
2023/03/11 00:43:11;;;;;;;23.90;15.30;;;;;;;7.54;84.63;97689.63;103704;279;38488;-70
2023/03/11 00:45:45;;;;;;;26.10;16.30;;;;;;;7.55;84.54;97688.88;103685;279;39465;-70
2023/03/11 00:48:19;;;;;;;27.40;15.70;;;;;;;7.55;84.62;97683.69;103723;279;38453;-72
2023/03/11 00:50:53;;;;;;;22.20;14.20;;;;;;;7.55;84.50;97676.52;103677;279;38240;-73
2023/03/11 00:53:27;;;;;;;22.10;14.30;;;;;;;7.55;84.30;97673.06;103692;279;39387;-73
2023/03/11 00:56:02;;;;;;;23.80;15.20;;;;;;;7.55;84.32;97673.11;103711;279;40057;-73
2023/03/11 00:58:37;;;;;;;30.80;16.70;;;;;;;7.52;84.21;97666.30;103712;279;38437;-73
2023/03/11 01:01:13;;;;;;;24.30;14.60;;;;;;;7.48;84.07;97665.70;103679;279;39612;-73
2023/03/11 01:03:47;;;;;;;25.60;14.80;;;;;;;7.45;84.09;97657.64;103723;279;38278;-73
2023/03/11 01:06:21;;;;;;;23.50;14.60;;;;;;;7.42;84.04;97652.80;103714;279;39409;-73
2023/03/11 01:08:55;;;;;;;25.70;16.20;;;;;;;7.36;83.97;97654.41;103604;279;175655;-71
2023/03/11 01:11:29;;;;;;;22.40;14.80;;;;;;;7.32;84.01;97657.98;103722;267;39020;-70
2023/03/11 01:14:03;;;;;;;22.70;14.50;;;;;;;7.26;84.19;97658.02;103736;279;40059;-72
2023/03/11 01:16:37;;;;;;;23.30;14.40;;;;;;;7.22;84.14;97654.50;103525;280;38274;-72
2023/03/11 01:19:10;;;;;;;21.30;14.10;;;;;;;7.16;84.16;97654.70;103740;279;39458;-73
2023/03/11 01:21:45;;;;;;;22.10;14.60;;;;;;;7.13;84.44;97652.52;103735;279;38726;-72
2023/03/11 01:24:19;;;;;;;27.80;14.80;;;;;;;7.10;84.47;97661.91;103719;279;38266;-72
2023/03/11 01:26:53;;;;;;;23.50;14.90;;;;;;;7.05;84.55;97663.11;103675;279;38541;-71
2023/03/11 01:29:27;;;;;;;22.50;13.50;;;;;;;7.00;84.39;97661.20;103671;279;38337;-72
2023/03/11 01:32:01;;;;;;;23.10;14.30;;;;;;;6.94;84.47;97659.13;103686;279;38855;-72
2023/03/11 01:34:35;;;;;;;23.50;13.40;;;;;;;6.90;84.45;97661.99;103705;279;39184;-70
2023/03/11 01:37:10;;;;;;;26.90;14.30;;;;;;;6.84;84.57;97664.50;103642;279;38468;-71
2023/03/11 01:39:44;;;;;;;24.30;15.40;;;;;;;6.80;84.93;97658.91;103669;279;38510;-72
2023/03/11 01:42:18;;;;;;;25.10;15.80;;;;;;;6.78;85.11;97653.11;103639;279;39415;-73
2023/03/11 01:44:52;;;;;;;22.40;14.00;;;;;;;6.75;85.01;97650.70;103668;279;39527;-70
2023/03/11 01:47:42;;;;;;;22.20;13.80;;;;;;;6.71;84.86;97648.73;103649;279;39937;-72
2023/03/11 01:50:16;;;;;;;23.10;14.40;;;;;;;6.64;84.89;97643.09;103696;279;39661;-73
2023/03/11 01:52:50;;;;;;;24.80;14.80;;;;;;;6.60;84.86;97643.75;103659;279;39447;-71
2023/03/11 01:55:24;;;;;;;22.70;14.60;;;;;;;6.55;85.01;97646.85;103685;279;38675;-72
2023/03/11 01:57:59;;;;;;;22.60;13.30;;;;;;;6.51;85.22;97644.36;103668;279;38383;-72
2023/03/11 02:00:33;;;;;;;21.50;14.00;;;;;;;6.48;85.30;97645.04;103654;279;39123;-70
2023/03/11 02:03:11;;;;;;;22.10;14.40;;;;;;;6.45;85.35;97643.85;103658;279;38273;-73
2023/03/11 02:05:45;;;;;;;24.30;14.20;;;;;;;6.42;85.52;97642.84;103697;279;39424;-72
2023/03/11 02:08:19;;;;;;;22.50;13.50;;;;;;;6.39;85.50;97642.48;103615;279;38722;-70
2023/03/11 02:10:54;;;;;;;22.50;13.10;;;;;;;6.37;85.58;97641.43;103649;279;39273;-72
2023/03/11 02:13:28;;;;;;;19.70;11.50;;;;;;;6.33;85.60;97646.17;103701;279;38358;-72
2023/03/11 02:16:03;;;;;;;20.10;11.50;;;;;;;6.31;85.67;97643.67;103660;279;39147;-73
2023/03/11 02:18:37;;;;;;;19.00;12.00;;;;;;;6.29;85.67;97638.11;103637;279;38855;-73
2023/03/11 02:21:21;;;;;;;18.10;12.10;;;;;;;6.26;85.63;97636.59;103703;279;39019;-72
2023/03/11 02:24:00;;;;;;;18.00;10.60;;;;;;;6.23;85.81;97628.84;103683;278;38378;-72
2023/03/11 02:26:37;;;;;;;18.20;10.80;;;;;;;6.21;85.65;97627.89;103681;279;39419;-73
2023/03/11 02:29:11;;;;;;;17.70;10.90;;;;;;;6.18;85.55;97624.98;103661;279;39731;-72
2023/03/11 02:31:45;;;;;;;18.30;11.10;;;;;;;6.13;85.60;97623.90;103656;279;38827;-71
2023/03/11 02:34:27;;;;;;;17.20;11.30;;;;;;;6.09;85.44;97626.42;103690;279;38300;-73
2023/03/11 02:37:03;;;;;;;20.10;11.00;;;;;;;6.03;85.41;97629.61;103659;279;38749;-73
2023/03/11 02:39:40;;;;;;;16.80;10.70;;;;;;;5.97;85.33;97629.41;103680;279;38788;-72
2023/03/11 02:42:16;;;;;;;19.80;10.50;;;;;;;5.91;85.09;97628.24;103666;279;38659;-73
2023/03/11 02:44:52;;;;;;;15.80;11.50;;;;;;;5.85;84.89;97629.97;103615;279;175577;-71
2023/03/11 02:47:26;;;;;;;17.70;11.20;;;;;;;5.74;84.59;97632.75;103783;272;39442;-71
2023/03/11 02:50:00;;;;;;;18.10;10.90;;;;;;;5.65;84.65;97636.55;103742;279;38621;-73
2023/03/11 02:52:35;;;;;;;16.80;10.90;;;;;;;5.54;84.32;97634.84;103711;279;39635;-71
2023/03/11 02:55:11;;;;;;;16.70;10.60;;;;;;;5.45;84.35;97630.56;103747;279;38474;-71
2023/03/11 02:57:47;;;;;;;18.50;11.30;;;;;;;5.34;84.39;97626.03;103759;279;38505;-72
2023/03/11 03:00:22;;;;;;;16.70;10.90;;;;;;;5.28;84.62;97625.02;103759;279;38313;-72
2023/03/11 03:02:56;;;;;;;17.60;11.20;;;;;;;5.21;84.62;97625.83;103722;279;39553;-74
2023/03/11 03:05:30;;;;;;;17.40;10.30;;;;;;;5.10;84.46;97624.02;103752;279;39465;-72
2023/03/11 03:08:04;;;;;;;13.40;9.50;;;;;;;5.04;84.80;97624.59;103753;279;38798;-74
2023/03/11 03:10:38;;;;;;;14.60;9.40;;;;;;;5.03;85.04;97624.63;103719;279;40035;-73
2023/03/11 03:13:14;;;;;;;16.80;10.40;;;;;;;5.02;85.10;97620.72;103747;279;39958;-73
2023/03/11 03:15:48;;;;;;;16.80;10.70;;;;;;;5.02;85.19;97619.15;103740;279;39662;-72
2023/03/11 03:18:22;;;;;;;17.30;10.30;;;;;;;5.02;85.37;97619.02;103730;279;38356;-73
2023/03/11 03:20:56;;;;;;;15.00;9.90;;;;;;;5.02;85.47;97618.50;103720;279;39941;-71
2023/03/11 03:23:33;;;;;;;13.70;9.10;;;;;;;5.02;85.71;97622.45;103712;279;38506;-73
2023/03/11 03:26:08;;;;;;;15.00;8.80;;;;;;;5.05;85.87;97626.61;103714;279;40453;-73
2023/03/11 03:28:41;;;;;;;11.10;7.80;;;;;;;5.06;86.10;97624.39;103670;279;40021;-73
2023/03/11 03:31:15;;;;;;;9.70;7.30;;;;;;;5.12;86.70;97622.02;103728;279;38977;-73
2023/03/11 03:33:50;;;;;;;11.50;7.20;;;;;;;5.20;86.92;97624.67;103729;279;39701;-73
2023/03/11 03:36:24;;;;;;;11.60;7.20;;;;;;;5.27;87.19;97622.14;103716;279;39815;-73
2023/03/11 03:38:59;;;;;;;10.60;7.10;;;;;;;5.36;87.22;97622.30;103722;279;38604;-72
2023/03/11 03:41:34;;;;;;;9.80;6.40;;;;;;;5.47;87.42;97620.08;103705;279;39198;-74
2023/03/11 03:44:08;;;;;;;10.20;6.50;;;;;;;5.57;87.43;97615.33;103737;279;39134;-72
2023/03/11 03:46:41;;;;;;;8.10;6.80;;;;;;;5.64;87.38;97616.05;103744;279;38462;-72
2023/03/11 03:49:15;;;;;;;10.30;6.00;;;;;;;5.70;87.23;97615.85;103734;279;38775;-74
2023/03/11 03:51:50;;;;;;;11.20;6.60;;;;;;;5.75;87.02;97613.30;103702;279;38227;-72
2023/03/11 03:54:23;;;;;;;11.70;7.50;;;;;;;5.79;86.79;97613.41;103693;279;38254;-74
2023/03/11 03:56:57;;;;;;;8.60;6.20;;;;;;;5.82;86.69;97609.59;103667;279;38249;-74
2023/03/11 03:59:31;;;;;;;9.70;6.90;;;;;;;5.85;86.77;97612.86;103743;279;38742;-73
2023/03/11 04:02:32;;;;;;;10.90;5.80;;;;;;;5.87;86.73;97609.98;103713;291;38355;-74
2023/03/11 04:05:10;;;;;;;7.30;5.30;;;;;;;5.90;86.69;97610.97;103728;279;38346;-72
2023/03/11 04:07:47;;;;;;;10.00;6.70;;;;;;;5.95;86.73;97609.29;103729;279;39664;-74
2023/03/11 04:10:21;;;;;;;8.30;6.00;;;;;;;6.00;86.66;97603.81;103702;279;38285;-72
2023/03/11 04:12:56;;;;;;;7.60;6.10;;;;;;;6.04;86.63;97601.48;103714;279;38363;-74
2023/03/11 04:15:30;;;;;;;9.10;6.00;;;;;;;6.07;86.59;97598.70;103684;279;39678;-74
2023/03/11 04:18:04;;;;;;;10.70;6.10;;;;;;;6.11;86.64;97601.76;103691;280;38500;-74
2023/03/11 04:20:40;;;;;;;10.20;5.50;;;;;;;6.15;86.56;97598.31;103717;279;38511;-74
2023/03/11 04:23:14;;;;;;;7.80;6.20;;;;;;;6.20;86.51;97598.20;103688;279;39371;-74
2023/03/11 04:25:48;;;;;;;9.70;6.30;;;;;;;6.24;86.45;97597.63;103721;279;38449;-73
2023/03/11 04:28:22;;;;;;;7.50;5.30;;;;;;;6.26;86.34;97594.36;103607;279;38562;-72
2023/03/11 04:30:56;;;;;;;10.10;5.70;;;;;;;6.30;86.22;97592.39;103700;279;38870;-73
2023/03/11 04:33:31;;;;;;;7.20;5.00;;;;;;;6.33;86.06;97586.64;103686;279;38592;-73
2023/03/11 04:36:09;;;;;;;9.40;5.60;;;;;;;6.35;85.98;97583.02;103704;279;38478;-74
2023/03/11 04:38:44;;;;;;;8.00;5.40;;;;;;;6.36;85.90;97581.77;103748;279;39902;-71
2023/03/11 04:41:18;;;;;;;9.40;5.40;;;;;;;6.36;85.80;97583.64;103594;279;189127;-72
2023/03/11 04:43:52;;;;;;;7.30;5.60;;;;;;;6.37;85.68;97585.51;103738;279;38981;-73
2023/03/11 04:46:26;;;;;;;10.20;5.40;;;;;;;6.40;85.74;97591.19;103679;279;38784;-71
2023/03/11 04:49:00;;;;;;;8.60;5.20;;;;;;;6.42;85.77;97592.98;103720;279;38232;-72
2023/03/11 04:51:35;;;;;;;8.40;5.10;;;;;;;6.44;85.78;97594.73;103659;279;40118;-72
2023/03/11 04:54:11;;;;;;;8.50;5.90;;;;;;;6.46;85.76;97597.56;103724;279;39857;-73
2023/03/11 04:56:45;;;;;;;7.60;5.40;;;;;;;6.49;85.71;97597.55;103614;279;175599;-73
2023/03/11 04:59:20;;;;;;;9.40;5.60;;;;;;;6.50;85.55;97599.35;103685;279;38301;-73
2023/03/11 05:01:54;;;;;;;8.20;6.20;;;;;;;6.54;85.55;97600.16;103707;279;39584;-73
2023/03/11 05:04:29;;;;;;;9.00;5.40;;;;;;;6.55;85.42;97599.02;103736;279;38238;-74
2023/03/11 05:07:03;;;;;;;9.90;5.60;;;;;;;6.56;85.41;97596.90;103642;279;175576;-74
2023/03/11 05:09:39;;;;;;;7.30;5.20;;;;;;;6.56;85.28;97595.31;103744;279;38798;-74
2023/03/11 05:12:13;;;;;;;7.60;5.10;;;;;;;6.56;85.20;97597.04;103566;279;175341;-71
2023/03/11 05:14:47;;;;;;;8.80;5.30;;;;;;;6.58;85.31;97596.75;103724;279;38810;-73
2023/03/11 05:17:23;;;;;;;10.00;5.90;;;;;;;6.60;85.32;97596.45;103707;279;39240;-73
2023/03/11 05:19:57;;;;;;;9.10;6.10;;;;;;;6.61;85.28;97593.61;103636;279;39391;-71
2023/03/11 05:22:32;;;;;;;8.50;5.70;;;;;;;6.62;85.19;97591.13;103726;279;39337;-73
2023/03/11 05:25:06;;;;;;;9.20;5.60;;;;;;;6.63;85.18;97593.27;103749;279;38548;-73
2023/03/11 05:27:41;;;;;;;8.20;5.20;;;;;;;6.65;85.25;97590.89;103739;279;38423;-73
2023/03/11 05:30:17;;;;;;;9.20;5.90;;;;;;;6.67;85.19;97590.48;103732;279;38448;-74
2023/03/11 05:32:51;;;;;;;8.50;5.10;;;;;;;6.68;85.21;97594.52;103712;279;38259;-73
2023/03/11 05:35:25;;;;;;;6.00;4.90;;;;;;;6.70;85.17;97593.02;103659;279;38405;-74
2023/03/11 05:37:59;;;;;;;8.30;5.20;;;;;;;6.73;85.07;97591.96;103668;279;38518;-74
2023/03/11 05:40:33;;;;;;;8.10;5.50;;;;;;;6.77;85.31;97596.73;103692;279;38277;-73
2023/03/11 05:43:07;;;;;;;7.10;5.20;;;;;;;6.80;85.23;97596.70;103710;279;38229;-73
2023/03/11 05:45:42;;;;;;;7.30;4.60;;;;;;;6.78;85.19;97594.71;103681;279;39470;-73
2023/03/11 05:48:16;;;;;;;6.40;4.60;;;;;;;6.82;85.25;97598.48;103695;279;38368;-71
2023/03/11 05:50:50;;;;;;;6.60;4.20;;;;;;;6.86;85.21;97596.83;103687;279;39677;-73
2023/03/11 05:53:25;;;;;;;6.10;4.40;;;;;;;6.89;85.34;97596.55;103600;279;38615;-74
2023/03/11 05:56:02;;;;;;;7.50;4.80;;;;;;;6.92;85.38;97595.84;103710;279;40823;-73
2023/03/11 05:58:36;;;;;;;5.70;3.90;;;;;;;6.94;85.30;97595.86;103373;279;425272;-74
2023/03/11 06:01:13;;;;;;;5.90;4.20;;;;;;;6.99;85.35;97595.40;103724;279;39677;-74
2023/03/11 06:03:47;;;;;;;5.40;3.90;;;;;;;7.03;85.29;97593.37;103711;279;38314;-74
2023/03/11 06:06:22;;;;;;;5.80;4.10;;;;;;;7.07;85.40;97590.34;103724;279;39381;-74
2023/03/11 06:08:57;;;;;;;6.80;4.30;;;;;;;7.13;85.40;97593.88;103715;279;38729;-73
2023/03/11 06:11:31;;;;;;;6.10;4.10;;;;;;;7.18;85.41;97591.46;103676;279;38515;-70
2023/03/11 06:14:05;;;;;;;6.80;4.30;;;;;;;7.25;85.32;97594.85;103730;279;38518;-74
2023/03/11 06:16:39;;;;;;;6.90;5.00;;;;;;;7.32;85.24;97598.30;103722;279;38547;-74
2023/03/11 06:19:13;;;;;;;6.90;4.10;;;;;;;7.38;85.22;97603.64;103701;279;38501;-71
2023/03/11 06:21:48;;;;;;;6.90;4.80;;;;;;;7.44;85.17;97606.19;103727;279;38207;-73
2023/03/11 06:24:21;;;;;;;7.30;4.80;;;;;;;7.47;85.08;97608.00;103747;279;39418;-71
2023/03/11 06:26:56;;;;;;;5.60;4.00;;;;;;;7.50;84.91;97616.48;103745;279;39886;-73
2023/03/11 06:29:30;;;;;;;6.10;4.20;;;;;;;7.53;84.76;97618.40;103731;279;39736;-74
2023/03/11 06:32:04;;;;;;;6.40;4.40;;;;;;;7.56;84.76;97624.08;103692;280;39494;-74
2023/03/11 06:34:39;;;;;;;7.30;5.20;;;;;;;7.58;84.60;97625.31;103655;279;38792;-74
2023/03/11 06:37:13;;;;;;;6.70;4.80;;;;;;;7.61;84.60;97626.02;103705;279;39126;-74
2023/03/11 06:39:48;;;;;;;6.20;4.60;;;;;;;7.64;84.71;97625.74;103727;279;38361;-74
2023/03/11 06:42:22;;;;;;;7.10;4.80;;;;;;;7.70;84.69;97629.52;103761;279;38261;-74
2023/03/11 06:44:57;;;;;;;5.90;4.70;;;;;;;7.73;84.45;97628.91;103743;279;38365;-71
2023/03/11 06:47:32;;;;;;;6.90;4.90;;;;;;;7.76;84.36;97631.14;103727;279;38450;-73
2023/03/11 06:50:09;;;;;;;7.30;4.70;;;;;;;7.78;84.27;97630.70;103672;279;38248;-74
2023/03/11 06:52:44;;;;;;;6.90;4.70;;;;;;;7.77;84.11;97635.08;103777;271;39949;-72
2023/03/11 06:55:20;;;;;;;6.20;4.70;;;;;;;7.78;84.16;97633.81;103734;279;39518;-70
2023/03/11 06:57:54;;;;;;;5.60;4.30;;;;;;;7.80;84.16;97640.77;103758;267;38231;-73
2023/03/11 07:00:29;;;;;;;4.90;4.30;;;;;;;7.84;84.29;97644.73;103754;279;39918;-74
2023/03/11 07:03:04;;;;;;;6.40;5.00;;;;;;;7.87;84.31;97645.46;103706;278;39669;-74
2023/03/11 07:05:38;;;;;;;6.00;5.00;;;;;;;7.91;84.28;97642.94;103697;279;38231;-74
2023/03/11 07:08:12;;;;;;;7.20;5.40;;;;;;;7.92;84.11;97642.67;103715;279;38499;-73
2023/03/11 07:10:47;;;;;;;7.70;5.10;;;;;;;7.95;84.00;97642.47;103736;279;38263;-73
2023/03/11 07:13:21;;;;;;;5.80;5.20;;;;;;;7.99;84.02;97649.70;103760;279;38229;-74
2023/03/11 07:16:03;;;;;;;8.90;5.80;;;;;;;8.00;83.87;97651.88;103712;279;39416;-72
2023/03/11 07:18:37;;;;;;;7.80;5.60;;;;;;;8.00;83.81;97653.44;103666;279;38260;-73
2023/03/11 07:21:12;;;;;;;7.50;4.70;;;;;;;8.00;83.93;97654.62;103674;279;38604;-73
2023/03/11 07:23:46;;;;;;;6.80;5.50;;;;;;;8.02;83.76;97652.02;103736;279;40001;-71
2023/03/11 07:26:20;;;;;;;6.70;5.80;;;;;;;8.03;83.77;97656.70;103739;279;39669;-73
2023/03/11 07:28:55;;;;;;;6.20;5.10;;;;;;;8.07;83.87;97658.48;103716;279;39477;-73
2023/03/11 07:31:31;;;;;;;6.30;5.60;;;;;;;8.09;83.66;97660.64;103667;279;39430;-72
2023/03/11 07:34:10;;;;;;;7.40;5.70;;;;;;;8.06;83.68;97664.13;103739;279;38807;-74
2023/03/11 07:36:44;;;;;;;6.80;5.50;;;;;;;8.07;83.54;97668.25;103718;279;38787;-73
2023/03/11 07:39:19;;;;;;;6.60;5.80;;;;;;;8.06;83.48;97669.86;103652;279;38801;-73
2023/03/11 07:41:53;;;;;;;7.10;6.00;;;;;;;8.08;83.61;97671.25;103674;279;38502;-72
2023/03/11 07:44:27;;;;;;;7.10;6.40;;;;;;;8.10;83.56;97672.86;103726;279;38527;-74
2023/03/11 07:47:03;;;;;;;8.10;6.60;;;;;;;8.11;83.59;97669.31;103704;279;38736;-73
2023/03/11 07:49:37;;;;;;;8.20;7.40;;;;;;;8.09;83.34;97667.05;103759;279;38288;-73
2023/03/11 07:52:11;;;;;;;8.00;7.20;;;;;;;8.07;83.30;97673.29;103678;279;39815;-74
2023/03/11 07:54:46;;;;;;;9.50;8.20;;;;;;;8.06;83.40;97671.38;103726;279;38890;-73
2023/03/11 07:57:20;;;;;;;11.00;7.90;;;;;;;8.09;83.52;97676.25;103708;279;38542;-71
2023/03/11 07:59:55;;;;;;;9.90;8.80;;;;;;;8.12;83.59;97675.67;103634;279;39253;-73
2023/03/11 08:02:29;;;;;;;9.90;8.90;;;;;;;8.15;83.54;97676.96;103731;279;38365;-73
2023/03/11 08:05:03;;;;;;;11.40;9.90;;;;;;;8.15;83.47;97677.87;103645;279;38774;-73
2023/03/11 08:07:39;;;;;;;10.00;9.00;;;;;;;8.15;83.48;97679.42;103700;279;38679;-74
2023/03/11 08:10:20;;;;;;;10.10;8.80;;;;;;;8.18;83.45;97681.49;103731;268;39689;-73
2023/03/11 08:12:57;;;;;;;8.90;7.90;;;;;;;8.18;83.37;97687.02;103791;268;39507;-74
2023/03/11 08:15:32;;;;;;;9.10;8.00;;;;;;;8.20;83.39;97685.34;103734;279;38313;-74
2023/03/11 08:18:07;;;;;;;9.60;8.70;;;;;;;8.23;83.50;97688.59;103612;279;175460;-73
2023/03/11 08:20:44;;;;;;;9.90;8.90;;;;;;;8.26;83.41;97691.00;103578;279;175502;-72
2023/03/11 08:23:23;;;;;;;9.90;8.90;;;;;;;8.24;83.30;97691.61;103630;279;38256;-72
2023/03/11 08:26:00;;;;;;;9.00;8.10;;;;;;;8.22;83.19;97692.80;103716;279;38449;-73
2023/03/11 08:28:35;;;;;;;8.90;8.00;;;;;;;8.23;83.43;97694.64;103707;279;38413;-76
2023/03/11 08:31:21;;;;;;;8.90;8.10;;;;;;;8.27;83.42;97702.88;103532;280;38272;-72
2023/03/11 08:33:59;;;;;;;9.10;8.20;;;;;;;8.30;83.24;97708.06;103746;279;39399;-73
2023/03/11 08:36:37;;;;;;;10.20;9.20;;;;;;;8.27;83.12;97711.41;103707;279;39422;-72
2023/03/11 08:39:11;;;;;;;10.70;9.60;;;;;;;8.26;83.22;97715.62;103689;279;39094;-72
2023/03/11 08:41:46;;;;;;;9.10;8.30;;;;;;;8.23;83.00;97718.60;103736;279;38292;-72
2023/03/11 08:44:21;;;;;;;9.20;8.30;;;;;;;8.19;82.92;97723.59;103745;279;38261;-74
2023/03/11 08:46:55;;;;;;;9.00;8.10;;;;;;;8.18;83.13;97729.41;103688;279;38393;-73
2023/03/11 08:49:30;;;;;;;9.50;8.60;;;;;;;8.18;83.03;97733.41;103608;280;38869;-73
2023/03/11 08:52:05;;;;;;;10.70;9.60;;;;;;;8.18;83.18;97734.10;103680;279;39394;-73
2023/03/11 08:54:39;;;;;;;12.00;10.80;;;;;;;8.18;83.11;97742.46;103708;279;38707;-73
2023/03/11 08:57:12;;;;;;;11.90;10.70;;;;;;;8.15;83.14;97744.88;103675;279;38848;-74
2023/03/11 08:59:47;;;;;;;12.90;10.40;;;;;;;8.14;83.28;97747.08;103596;280;38699;-72
2023/03/11 09:02:22;;;;;;;11.00;9.80;;;;;;;8.13;83.24;97754.45;103714;279;38251;-73
2023/03/11 09:04:56;;;;;;;13.20;10.90;;;;;;;8.10;83.14;97758.10;103691;279;39936;-74
2023/03/11 09:07:30;;;;;;;13.00;11.30;;;;;;;8.07;83.18;97766.00;103715;279;38362;-71
2023/03/11 09:10:04;;;;;;;20.40;14.40;;;;;;;8.05;83.16;97767.67;103667;279;38251;-73
2023/03/11 09:12:38;;;;;;;17.10;14.20;;;;;;;7.97;83.14;97774.29;103673;279;38491;-73
2023/03/11 09:15:14;;;;;;;16.80;13.90;;;;;;;7.90;83.26;97780.31;103718;279;38258;-73
2023/03/11 09:17:49;;;;;;;17.90;14.00;;;;;;;7.86;83.43;97791.73;103729;279;38262;-73
2023/03/11 09:20:23;;;;;;;18.20;14.50;;;;;;;7.84;83.66;97798.11;103708;279;38389;-73
2023/03/11 09:22:57;;;;;;;21.80;16.10;;;;;;;7.83;83.62;97805.48;103726;279;38577;-72
2023/03/11 09:25:32;;;;;;;23.10;16.40;;;;;;;7.77;83.15;97820.30;103749;279;38488;-74
2023/03/11 09:28:06;;;;;;;21.90;15.50;;;;;;;7.63;82.30;97831.60;103758;279;38271;-74
2023/03/11 09:30:40;;;;;;;20.90;16.10;;;;;;;7.45;81.05;97841.46;103717;279;39431;-72
2023/03/11 09:33:16;;;;;;;22.50;16.20;;;;;;;7.22;80.79;97843.67;103751;279;38988;-73
2023/03/11 09:35:50;;;;;;;23.60;17.10;;;;;;;7.04;80.97;97851.38;103678;279;38275;-73
2023/03/11 09:38:24;;;;;;;24.00;18.40;;;;;;;6.92;80.87;97857.18;103785;279;39456;-72
2023/03/11 09:41:02;;;;;;;24.90;18.30;;;;;;;6.72;80.24;97867.27;103658;280;38400;-73
2023/03/11 09:43:51;;;;;;;24.40;17.20;;;;;;;6.51;80.14;97875.16;103597;280;39427;-73
2023/03/11 09:47:12;;;;;;;26.70;17.50;;;;;;;6.42;80.65;97885.40;103718;279;38253;-72
2023/03/11 09:49:57;;;;;;;21.00;15.20;;;;;;;6.28;80.43;97897.69;103639;285;39610;-73
2023/03/11 09:52:36;;;;;;;20.10;13.80;;;;;;;6.13;79.41;97903.26;103679;279;38223;-75
2023/03/11 09:55:30;;;;;;;15.40;11.80;;;;;;;5.93;79.14;97915.53;103688;279;38403;-72
2023/03/11 09:58:16;;;;;;;11.40;9.30;;;;;;;5.72;79.07;97921.02;103706;279;38262;-71
2023/03/11 10:00:52;;;;;;;13.00;9.70;;;;;;;5.63;79.23;97922.95;103585;279;172852;-71
2023/03/11 10:03:33;;;;;;;12.60;9.70;;;;;;;5.58;78.91;97930.67;103714;279;38240;-75
2023/03/11 10:06:18;;;;;;;13.30;10.10;;;;;;;5.46;78.81;97940.16;103684;279;38815;-74
2023/03/11 10:08:59;;;;;;;13.70;10.30;;;;;;;5.34;79.11;97944.80;103701;279;38517;-74
2023/03/11 10:11:57;;;;;;;13.20;10.40;;;;;;;5.20;79.16;97952.14;103563;279;175613;-73
2023/03/11 10:15:00;;;;;;;10.40;8.80;;;;;;;5.06;79.53;97955.88;103694;279;38516;-73
2023/03/11 10:17:56;;;;;;;7.70;6.80;;;;;;;4.96;79.61;97964.19;103690;279;38224;-74
2023/03/11 10:20:34;;;;;;;7.30;6.50;;;;;;;4.90;79.84;97972.60;103036;279;911133;-71
2023/03/11 10:23:18;;;;;;;6.70;5.90;;;;;;;4.88;80.37;97981.85;103694;279;38602;-73
2023/03/11 10:26:00;;;;;;;7.10;6.50;;;;;;;4.84;80.25;97982.97;103669;279;39632;-73
2023/03/11 10:28:38;;;;;;;6.90;6.20;;;;;;;4.75;80.39;97990.69;103703;279;38972;-75
2023/03/11 10:31:20;;;;;;;6.90;6.10;;;;;;;4.66;80.67;97994.96;103693;279;38394;-72
2023/03/11 10:33:57;;;;;;;5.50;5.00;;;;;;;4.58;80.64;98002.80;103721;279;39748;-73
2023/03/11 10:36:38;;;;;;;6.20;5.50;;;;;;;4.54;80.88;98005.26;103565;279;39513;-73
2023/03/11 10:39:12;;;;;;;6.20;5.60;;;;;;;4.52;80.74;98014.31;103706;279;39421;-73
2023/03/11 10:41:49;;;;;;;6.80;5.70;;;;;;;4.44;80.78;98022.52;103654;279;39661;-73
2023/03/11 10:44:25;;;;;;;7.10;6.50;;;;;;;4.33;80.39;98025.12;103658;279;38442;-75
2023/03/11 10:46:59;;;;;;;6.10;5.50;;;;;;;4.23;80.59;98034.09;103680;279;39184;-73
2023/03/11 10:49:33;;;;;;;6.90;6.30;;;;;;;4.17;80.40;98037.67;103647;279;38654;-74
2023/03/11 10:52:08;;;;;;;6.40;5.80;;;;;;;4.10;80.56;98041.79;103667;279;38260;-72
2023/03/11 10:54:45;;;;;;;6.50;6.00;;;;;;;4.02;79.77;98048.76;103684;279;38582;-73
2023/03/11 10:57:27;;;;;;;8.00;7.20;;;;;;;3.93;79.95;98050.91;103679;279;38801;-73
2023/03/11 11:00:08;;;;;;;6.30;5.70;;;;;;;3.79;79.26;98062.25;103723;279;39908;-73
2023/03/11 11:02:51;;;;;;;5.90;5.40;;;;;;;3.73;79.68;98071.36;103711;279;38333;-74
2023/03/11 11:05:33;;;;;;;5.50;5.00;;;;;;;3.70;79.54;98077.20;103701;279;38692;-74
2023/03/11 11:08:11;;;;;;;4.70;4.30;;;;;;;3.61;78.80;98088.48;103733;279;38302;-73
2023/03/11 11:10:55;;;;;;;4.50;4.10;;;;;;;3.48;78.65;98095.27;103749;279;38269;-72
2023/03/11 11:13:31;;;;;;;4.20;3.40;;;;;;;3.41;79.08;98099.05;103751;279;38277;-74
2023/03/11 11:16:06;;;;;;;4.10;3.80;;;;;;;3.33;78.47;98106.61;103734;279;39502;-75
2023/03/11 11:18:45;;;;;;;4.40;2.90;;;;;;;3.24;78.25;98120.46;103762;279;40137;-73
2023/03/11 11:21:31;;;;;;;2.60;2.30;;;;;;;3.18;78.13;98126.61;103709;279;39974;-72
2023/03/11 11:24:14;;;;;;;2.80;2.60;;;;;;;3.11;78.43;98138.09;103708;279;39394;-74
2023/03/11 11:27:20;;;;;;;3.00;2.70;;;;;;;3.04;78.23;98142.52;103721;279;38407;-74
2023/03/11 11:30:18;;;;;;;2.90;2.60;;;;;;;3.00;78.63;98144.94;103659;279;38422;-73
2023/03/11 11:32:52;;;;;;;3.30;3.00;;;;;;;3.03;78.89;98151.90;103727;279;38522;-74
2023/03/11 11:35:27;;;;;;;2.80;2.30;;;;;;;3.13;79.21;98160.61;103737;279;39515;-75
2023/03/11 11:38:04;;;;;;;3.30;3.00;;;;;;;3.13;78.24;98164.56;103749;279;38374;-74
2023/03/11 11:40:38;;;;;;;3.20;2.80;;;;;;;3.06;78.50;98167.05;103748;279;39703;-76
2023/03/11 11:43:16;;;;;;;4.10;3.20;;;;;;;3.04;78.71;98169.74;103736;279;38282;-73
2023/03/11 11:45:53;;;;;;;3.30;3.00;;;;;;;3.03;79.04;98175.11;103675;279;38377;-72
2023/03/11 11:48:30;;;;;;;3.40;3.10;;;;;;;2.98;78.96;98184.49;103725;279;38468;-73
2023/03/11 11:51:08;;;;;;;4.10;3.50;;;;;;;2.92;79.29;98198.34;103699;279;38781;-74
2023/03/11 11:53:45;;;;;;;4.20;3.80;;;;;;;2.90;79.50;98205.15;103751;279;40170;-74
2023/03/11 11:56:19;;;;;;;5.00;4.30;;;;;;;2.88;79.61;98212.27;103671;279;38581;-74
2023/03/11 11:58:54;;;;;;;4.80;4.40;;;;;;;2.80;79.69;98218.46;103698;279;38239;-73
2023/03/11 12:01:39;;;;;;;5.10;4.50;;;;;;;2.76;79.89;98221.89;103710;279;38215;-74
2023/03/11 12:04:30;;;;;;;6.30;4.80;;;;;;;2.67;79.78;98236.06;103731;279;40072;-74
2023/03/11 12:07:13;;;;;;;5.50;5.00;;;;;;;2.56;80.01;98244.23;103727;279;39435;-74
2023/03/11 12:09:52;;;;;;;6.10;5.50;;;;;;;2.53;80.52;98255.34;103699;279;39760;-74
2023/03/11 12:12:30;;;;;;;5.90;5.10;;;;;;;2.51;80.52;98262.14;103708;279;38292;-73
2023/03/11 12:15:11;;;;;;;5.70;4.70;;;;;;;2.48;80.75;98263.65;103711;279;38371;-74
2023/03/11 12:17:50;;;;;;;6.20;4.70;;;;;;;2.54;81.07;98273.38;103700;279;38666;-75